Private Wetterstation Sandau
Wetterdaten: Mittwoch, 21.11.2012
Datum Zeit Temp. A. Feuchte A. Luftdruck Regen Wind Richtung Richtung Taupunkt Windchill
21.11.2012 00:01 5,8 C 94 % 1021,4 hPa 0,0 l/m 6,1 km/h (2 Bft) SO 135 4,9 C 4,6 C
21.11.2012 00:06 5,8 C 94 % 1021,3 hPa 0,0 l/m 5,4 km/h (1 Bft) O-SO 112 4,9 C 4,8 C
21.11.2012 00:11 5,8 C 94 % 1021,4 hPa 0,0 l/m 6,8 km/h (2 Bft) SO 135 4,9 C 4,4 C
21.11.2012 00:16 5,8 C 94 % 1021,1 hPa 0,0 l/m 7,6 km/h (2 Bft) SO 135 4,9 C 4,2 C
21.11.2012 00:21 5,8 C 94 % 1021,2 hPa 0,0 l/m 2,9 km/h (1 Bft) S-SO 157 4,9 C 5,8 C
21.11.2012 00:26 5,8 C 94 % 1021,2 hPa 0,0 l/m 7,6 km/h (2 Bft) SO 135 4,9 C 4,2 C
21.11.2012 00:31 5,8 C 94 % 1021,4 hPa 0,0 l/m 3,2 km/h (1 Bft) SO 135 4,9 C 5,8 C
21.11.2012 00:36 5,9 C 94 % 1021,2 hPa 0,0 l/m 10,8 km/h (2 Bft) SO 135 5,0 C 3,6 C
21.11.2012 00:41 5,8 C 94 % 1021,1 hPa 0,0 l/m 8,3 km/h (2 Bft) SO 135 4,9 C 4,0 C
21.11.2012 00:46 5,9 C 94 % 1021,2 hPa 0,0 l/m 7,6 km/h (2 Bft) S-SO 157 5,0 C 4,3 C
21.11.2012 00:51 5,9 C 94 % 1021,3 hPa 0,0 l/m 2,5 km/h (1 Bft) S-SO 157 5,0 C 5,9 C
21.11.2012 00:56 5,9 C 94 % 1021,0 hPa 0,0 l/m 5,0 km/h (1 Bft) O-SO 112 5,0 C 5,1 C
21.11.2012 01:01 5,9 C 94 % 1021,1 hPa 0,0 l/m 2,2 km/h (1 Bft) SO 135 5,0 C 5,9 C
21.11.2012 01:06 5,9 C 94 % 1021,1 hPa 0,0 l/m 1,8 km/h (1 Bft) SO 135 5,0 C 5,9 C
21.11.2012 01:11 5,9 C 94 % 1021,1 hPa 0,0 l/m 4,7 km/h (1 Bft) SO 135 5,0 C 5,2 C
21.11.2012 01:16 5,8 C 94 % 1021,0 hPa 0,0 l/m 0,0 km/h (0 Bft) SO 135 4,9 C 5,8 C
21.11.2012 01:21 5,8 C 94 % 1021,0 hPa 0,0 l/m 2,2 km/h (1 Bft) O-SO 112 4,9 C 5,8 C
21.11.2012 01:26 5,8 C 94 % 1021,1 hPa 0,0 l/m 3,2 km/h (1 Bft) SO 135 4,9 C 5,8 C
21.11.2012 01:31 5,8 C 94 % 1021,0 hPa 0,0 l/m 9,0 km/h (2 Bft) SO 135 4,9 C 3,8 C
21.11.2012 01:36 5,8 C 94 % 1020,8 hPa 0,0 l/m 4,0 km/h (1 Bft) SO 135 4,9 C 5,8 C
21.11.2012 01:41 5,8 C 94 % 1020,9 hPa 0,0 l/m 3,6 km/h (1 Bft) O-SO 112 4,9 C 5,8 C
21.11.2012 01:46 5,8 C 94 % 1020,8 hPa 0,0 l/m 6,1 km/h (2 Bft) SO 135 4,9 C 4,6 C
21.11.2012 01:51 5,9 C 94 % 1020,8 hPa 0,0 l/m 6,1 km/h (2 Bft) O-SO 112 5,0 C 4,7 C
21.11.2012 01:56 5,8 C 94 % 1020,8 hPa 0,0 l/m 4,0 km/h (1 Bft) O-SO 112 4,9 C 5,8 C
21.11.2012 02:01 5,8 C 94 % 1020,7 hPa 0,0 l/m 9,4 km/h (2 Bft) O-SO 112 4,9 C 3,7 C
21.11.2012 02:06 5,9 C 94 % 1020,6 hPa 0,0 l/m 6,1 km/h (2 Bft) SO 135 5,0 C 4,7 C
21.11.2012 02:11 5,8 C 94 % 1020,7 hPa 0,0 l/m 9,7 km/h (2 Bft) S-SO 157 4,9 C 3,7 C
21.11.2012 02:16 5,9 C 94 % 1020,7 hPa 0,0 l/m 5,4 km/h (1 Bft) O-SO 112 5,0 C 5,0 C
21.11.2012 02:21 5,9 C 94 % 1020,7 hPa 0,0 l/m 4,0 km/h (1 Bft) SO 135 5,0 C 5,9 C
21.11.2012 02:26 5,9 C 94 % 1020,7 hPa 0,0 l/m 7,6 km/h (2 Bft) S-SO 157 5,0 C 4,3 C
21.11.2012 02:31 5,9 C 94 % 1020,7 hPa 0,0 l/m 6,8 km/h (2 Bft) S-SO 157 5,0 C 4,5 C
21.11.2012 02:36 5,9 C 94 % 1020,7 hPa 0,0 l/m 6,8 km/h (2 Bft) SO 135 5,0 C 4,5 C
21.11.2012 02:41 5,9 C 94 % 1020,7 hPa 0,0 l/m 5,8 km/h (2 Bft) SO 135 5,0 C 4,8 C
21.11.2012 02:46 5,9 C 94 % 1020,5 hPa 0,0 l/m 2,2 km/h (1 Bft) O-SO 112 5,0 C 5,9 C
21.11.2012 02:51 5,9 C 94 % 1020,6 hPa 0,0 l/m 4,3 km/h (1 Bft) S-SO 157 5,0 C 5,9 C
21.11.2012 02:56 5,9 C 94 % 1020,5 hPa 0,0 l/m 2,5 km/h (1 Bft) S-SO 157 5,0 C 5,9 C
21.11.2012 03:01 5,9 C 94 % 1020,4 hPa 0,0 l/m 11,5 km/h (2 Bft) SO 135 5,0 C 3,4 C
21.11.2012 03:06 6,1 C 94 % 1020,4 hPa 0,0 l/m 5,4 km/h (1 Bft) O-SO 112 5,2 C 5,2 C
21.11.2012 03:11 6,1 C 93 % 1020,4 hPa 0,0 l/m 8,3 km/h (2 Bft) S-SO 157 5,1 C 4,4 C
21.11.2012 03:16 6,1 C 93 % 1020,4 hPa 0,0 l/m 2,5 km/h (1 Bft) O-SO 112 5,1 C 6,1 C
21.11.2012 03:21 6,1 C 93 % 1020,4 hPa 0,0 l/m 4,7 km/h (1 Bft) SO 135 5,1 C 5,4 C
21.11.2012 03:26 6,1 C 93 % 1020,4 hPa 0,0 l/m 6,1 km/h (2 Bft) SO 135 5,1 C 5,0 C
21.11.2012 03:31 6,1 C 93 % 1020,4 hPa 0,0 l/m 5,0 km/h (1 Bft) SO 135 5,1 C 5,3 C
21.11.2012 03:36 6,0 C 93 % 1020,3 hPa 0,0 l/m 7,6 km/h (2 Bft) S-SO 157 5,0 C 4,4 C
21.11.2012 03:41 5,9 C 93 % 1020,2 hPa 0,0 l/m 7,2 km/h (2 Bft) SO 135 4,9 C 4,4 C
21.11.2012 03:46 5,9 C 93 % 1020,0 hPa 0,0 l/m 3,6 km/h (1 Bft) SO 135 4,9 C 5,9 C
21.11.2012 03:51 5,9 C 93 % 1020,1 hPa 0,0 l/m 2,2 km/h (1 Bft) SO 135 4,9 C 5,9 C
21.11.2012 03:56 5,9 C 93 % 1020,0 hPa 0,0 l/m 3,6 km/h (1 Bft) SO 135 4,9 C 5,9 C
21.11.2012 04:01 5,9 C 93 % 1020,0 hPa 0,0 l/m 2,2 km/h (1 Bft) O-SO 112 4,9 C 5,9 C
21.11.2012 04:06 5,9 C 93 % 1020,0 hPa 0,0 l/m 6,5 km/h (2 Bft) SO 135 4,9 C 4,6 C
21.11.2012 04:11 5,9 C 93 % 1019,9 hPa 0,0 l/m 6,1 km/h (2 Bft) S-SO 157 4,9 C 4,7 C
21.11.2012 04:16 5,9 C 93 % 1019,9 hPa 0,0 l/m 5,0 km/h (1 Bft) S-SO 157 4,9 C 5,1 C
21.11.2012 04:21 5,9 C 93 % 1020,0 hPa 0,0 l/m 3,2 km/h (1 Bft) O-SO 112 4,9 C 5,9 C
21.11.2012 04:26 5,9 C 93 % 1019,9 hPa 0,0 l/m 9,0 km/h (2 Bft) SO 135 4,9 C 4,0 C
21.11.2012 04:31 5,9 C 93 % 1019,8 hPa 0,0 l/m 5,8 km/h (2 Bft) S-SO 157 4,9 C 4,8 C
21.11.2012 04:36 5,9 C 93 % 1019,8 hPa 0,0 l/m 2,9 km/h (1 Bft) SO 135 4,9 C 5,9 C
21.11.2012 04:41 5,9 C 93 % 1019,7 hPa 0,0 l/m 5,0 km/h (1 Bft) SO 135 4,9 C 5,1 C
21.11.2012 04:46 5,9 C 93 % 1019,7 hPa 0,0 l/m 0,0 km/h (0 Bft) SO 135 4,9 C 5,9 C
21.11.2012 04:51 5,9 C 93 % 1019,9 hPa 0,0 l/m 8,3 km/h (2 Bft) SO 135 4,9 C 4,1 C
21.11.2012 04:56 5,9 C 93 % 1019,8 hPa 0,0 l/m 7,2 km/h (2 Bft) O-SO 112 4,9 C 4,4 C
21.11.2012 05:01 5,9 C 93 % 1019,7 hPa 0,0 l/m 6,5 km/h (2 Bft) SO 135 4,9 C 4,6 C
21.11.2012 05:06 5,9 C 93 % 1019,6 hPa 0,0 l/m 4,0 km/h (1 Bft) SO 135 4,9 C 5,9 C
21.11.2012 05:11 5,9 C 93 % 1019,6 hPa 0,0 l/m 7,6 km/h (2 Bft) SO 135 4,9 C 4,3 C
21.11.2012 05:16 5,9 C 93 % 1019,7 hPa 0,0 l/m 5,8 km/h (2 Bft) SO 135 4,9 C 4,8 C
21.11.2012 05:21 5,9 C 93 % 1019,6 hPa 0,0 l/m 5,4 km/h (1 Bft) S-SO 157 4,9 C 5,0 C
21.11.2012 05:26 5,9 C 93 % 1019,7 hPa 0,0 l/m 6,5 km/h (2 Bft) SO 135 4,9 C 4,6 C
21.11.2012 05:31 5,9 C 93 % 1019,6 hPa 0,0 l/m 5,0 km/h (1 Bft) S-SO 157 4,9 C 5,1 C
21.11.2012 05:36 5,9 C 93 % 1019,6 hPa 0,0 l/m 4,7 km/h (1 Bft) SO 135 4,9 C 5,2 C
21.11.2012 05:41 5,9 C 93 % 1019,7 hPa 0,0 l/m 4,7 km/h (1 Bft) O-SO 112 4,9 C 5,2 C
21.11.2012 05:46 5,9 C 93 % 1019,6 hPa 0,0 l/m 4,3 km/h (1 Bft) S-SO 157 4,9 C 5,9 C
21.11.2012 05:51 5,9 C 93 % 1019,6 hPa 0,0 l/m 7,2 km/h (2 Bft) O-SO 112 4,9 C 4,4 C
21.11.2012 05:56 5,9 C 93 % 1019,5 hPa 0,0 l/m 5,0 km/h (1 Bft) SO 135 4,9 C 5,1 C
21.11.2012 06:01 5,9 C 93 % 1019,3 hPa 0,0 l/m 5,4 km/h (1 Bft) O-SO 112 4,9 C 5,0 C
21.11.2012 06:06 5,9 C 93 % 1019,4 hPa 0,0 l/m 3,2 km/h (1 Bft) SO 135 4,9 C 5,9 C
21.11.2012 06:11 5,9 C 93 % 1019,4 hPa 0,0 l/m 4,3 km/h (1 Bft) O-SO 112 4,9 C 5,9 C
21.11.2012 06:16 5,9 C 93 % 1019,3 hPa 0,0 l/m 3,6 km/h (1 Bft) S-SO 157 4,9 C 5,9 C
21.11.2012 06:21 5,9 C 93 % 1019,4 hPa 0,0 l/m 4,0 km/h (1 Bft) SO 135 4,9 C 5,9 C
21.11.2012 06:26 5,9 C 93 % 1019,4 hPa 0,0 l/m 6,1 km/h (2 Bft) SO 135 4,9 C 4,7 C
21.11.2012 06:31 5,9 C 93 % 1019,3 hPa 0,0 l/m 4,3 km/h (1 Bft) SO 135 4,9 C 5,9 C
21.11.2012 06:36 5,9 C 93 % 1019,4 hPa 0,0 l/m 2,5 km/h (1 Bft) SO 135 4,9 C 5,9 C
21.11.2012 06:41 5,9 C 93 % 1019,4 hPa 0,0 l/m 3,6 km/h (1 Bft) SO 135 4,9 C 5,9 C
21.11.2012 06:46 5,9 C 93 % 1019,3 hPa 0,0 l/m 7,9 km/h (2 Bft) S-SO 157 4,9 C 4,2 C
21.11.2012 06:51 5,9 C 93 % 1019,3 hPa 0,0 l/m 9,0 km/h (2 Bft) SO 135 4,9 C 4,0 C
21.11.2012 06:56 5,9 C 93 % 1019,4 hPa 0,0 l/m 7,9 km/h (2 Bft) O-SO 112 4,9 C 4,2 C
21.11.2012 07:01 5,9 C 93 % 1019,3 hPa 0,0 l/m 2,5 km/h (1 Bft) SO 135 4,9 C 5,9 C
21.11.2012 07:06 5,9 C 93 % 1019,3 hPa 0,0 l/m 4,0 km/h (1 Bft) S-SO 157 4,9 C 5,9 C
21.11.2012 07:11 5,9 C 93 % 1019,4 hPa 0,0 l/m 5,0 km/h (1 Bft) S-SO 157 4,9 C 5,1 C
21.11.2012 07:16 5,9 C 93 % 1019,3 hPa 0,0 l/m 7,2 km/h (2 Bft) O-SO 112 4,9 C 4,4 C
21.11.2012 07:21 5,9 C 93 % 1019,2 hPa 0,0 l/m 2,9 km/h (1 Bft) SO 135 4,9 C 5,9 C
21.11.2012 07:26 5,9 C 93 % 1019,3 hPa 0,0 l/m 7,2 km/h (2 Bft) SO 135 4,9 C 4,4 C
21.11.2012 07:31 5,9 C 93 % 1019,2 hPa 0,0 l/m 9,0 km/h (2 Bft) S-SO 157 4,9 C 4,0 C
21.11.2012 07:36 5,9 C 93 % 1019,3 hPa 0,0 l/m 2,5 km/h (1 Bft) S-SO 157 4,9 C 5,9 C
21.11.2012 07:41 5,9 C 93 % 1019,3 hPa 0,0 l/m 5,8 km/h (2 Bft) S-SO 157 4,9 C 4,8 C
21.11.2012 07:46 5,9 C 93 % 1019,3 hPa 0,0 l/m 7,6 km/h (2 Bft) S-SO 157 4,9 C 4,3 C
21.11.2012 07:51 5,9 C 93 % 1019,4 hPa 0,0 l/m 7,9 km/h (2 Bft) SO 135 4,9 C 4,2 C
21.11.2012 07:56 5,9 C 93 % 1019,3 hPa 0,0 l/m 5,8 km/h (2 Bft) SO 135 4,9 C 4,8 C
21.11.2012 08:01 5,9 C 93 % 1019,3 hPa 0,0 l/m 3,2 km/h (1 Bft) O-SO 112 4,9 C 5,9 C
21.11.2012 08:06 5,9 C 93 % 1019,3 hPa 0,0 l/m 9,4 km/h (2 Bft) SO 135 4,9 C 3,9 C
21.11.2012 08:11 5,9 C 93 % 1019,5 hPa 0,0 l/m 6,1 km/h (2 Bft) S-SO 157 4,9 C 4,7 C
21.11.2012 08:16 5,9 C 93 % 1019,4 hPa 0,0 l/m 6,8 km/h (2 Bft) O-SO 112 4,9 C 4,5 C
21.11.2012 08:21 6,0 C 93 % 1019,5 hPa 0,0 l/m 7,6 km/h (2 Bft) O-SO 112 5,0 C 4,4 C
21.11.2012 08:26 6,1 C 93 % 1019,4 hPa 0,0 l/m 11,9 km/h (2 Bft) SO 135 5,1 C 3,6 C
21.11.2012 08:31 6,1 C 93 % 1019,5 hPa 0,0 l/m 0,0 km/h (0 Bft) S-SO 157 5,1 C 6,1 C
21.11.2012 08:36 6,1 C 93 % 1019,4 hPa 0,0 l/m 6,5 km/h (2 Bft) O-SO 112 5,1 C 4,8 C
21.11.2012 08:41 6,1 C 93 % 1019,3 hPa 0,0 l/m 15,5 km/h (3 Bft) SO 135 5,1 C 3,0 C
21.11.2012 08:46 6,1 C 93 % 1019,3 hPa 0,0 l/m 10,1 km/h (2 Bft) S-SO 157 5,1 C 4,0 C
21.11.2012 08:51 5,9 C 93 % 1019,4 hPa 0,0 l/m 7,2 km/h (2 Bft) O-SO 112 4,9 C 4,4 C
21.11.2012 08:56 6,0 C 93 % 1019,4 hPa 0,0 l/m 9,4 km/h (2 Bft) SO 135 5,0 C 4,0 C
21.11.2012 09:01 5,9 C 93 % 1019,4 hPa 0,0 l/m 3,6 km/h (1 Bft) S-SO 157 4,9 C 5,9 C
21.11.2012 09:06 5,9 C 93 % 1019,6 hPa 0,0 l/m 5,8 km/h (2 Bft) SO 135 4,9 C 4,8 C
21.11.2012 09:11 5,9 C 93 % 1019,3 hPa 0,0 l/m 5,8 km/h (2 Bft) SO 135 4,9 C 4,8 C
21.11.2012 09:16 5,9 C 93 % 1019,3 hPa 0,0 l/m 2,2 km/h (1 Bft) SO 135 4,9 C 5,9 C
21.11.2012 09:21 5,9 C 93 % 1019,3 hPa 0,0 l/m 6,8 km/h (2 Bft) O-SO 112 4,9 C 4,5 C
21.11.2012 09:26 5,9 C 93 % 1019,3 hPa 0,0 l/m 4,7 km/h (1 Bft) SO 135 4,9 C 5,2 C
21.11.2012 09:31 5,9 C 93 % 1019,3 hPa 0,0 l/m 13,3 km/h (3 Bft) S-SO 157 4,9 C 3,1 C
21.11.2012 09:36 5,8 C 93 % 1019,3 hPa 0,0 l/m 5,4 km/h (1 Bft) O-SO 112 4,8 C 4,8 C
21.11.2012 09:41 5,8 C 93 % 1019,3 hPa 0,0 l/m 10,1 km/h (2 Bft) S-SO 157 4,8 C 3,6 C
21.11.2012 09:46 5,8 C 93 % 1019,2 hPa 0,0 l/m 8,6 km/h (2 Bft) SO 135 4,8 C 3,9 C
21.11.2012 09:51 5,6 C 93 % 1019,1 hPa 0,0 l/m 7,2 km/h (2 Bft) S-SO 157 4,6 C 4,1 C
21.11.2012 09:56 5,5 C 93 % 1019,2 hPa 0,0 l/m 7,2 km/h (2 Bft) SO 135 4,5 C 3,9 C
21.11.2012 10:01 5,4 C 93 % 1019,3 hPa 0,0 l/m 11,2 km/h (2 Bft) SO 135 4,4 C 2,9 C
21.11.2012 10:06 5,4 C 93 % 1019,3 hPa 0,0 l/m 8,3 km/h (2 Bft) S-SO 157 4,4 C 3,5 C
21.11.2012 10:11 5,4 C 93 % 1019,2 hPa 0,0 l/m 12,2 km/h (2 Bft) O-SO 112 4,4 C 2,7 C
21.11.2012 10:16 5,3 C 93 % 1019,3 hPa 0,0 l/m 13,0 km/h (3 Bft) SO 135 4,3 C 2,4 C
21.11.2012 10:21 5,2 C 93 % 1019,3 hPa 0,0 l/m 7,2 km/h (2 Bft) O-SO 112 4,2 C 3,6 C
21.11.2012 10:26 5,1 C 93 % 1019,4 hPa 0,0 l/m 9,0 km/h (2 Bft) S-SO 157 4,1 C 3,0 C
21.11.2012 10:31 5,1 C 92 % 1019,2 hPa 0,0 l/m 9,0 km/h (2 Bft) S-SO 157 3,9 C 3,0 C
21.11.2012 10:36 5,0 C 92 % 1019,2 hPa 0,0 l/m 7,9 km/h (2 Bft) S-SO 157 3,8 C 3,2 C
21.11.2012 10:41 5,0 C 93 % 1019,2 hPa 0,0 l/m 14,8 km/h (3 Bft) SO 135 4,0 C 1,8 C
21.11.2012 10:46 5,0 C 93 % 1019,2 hPa 0,0 l/m 7,9 km/h (2 Bft) SO 135 4,0 C 3,2 C
21.11.2012 10:51 5,1 C 93 % 1019,2 hPa 0,0 l/m 8,6 km/h (2 Bft) O-SO 112 4,1 C 3,1 C
21.11.2012 10:56 5,1 C 93 % 1019,1 hPa 0,0 l/m 18,7 km/h (3 Bft) S-SO 157 4,1 C 1,4 C
21.11.2012 11:01 5,2 C 93 % 1019,1 hPa 0,0 l/m 11,9 km/h (2 Bft) S 180 4,2 C 2,5 C
21.11.2012 11:06 5,2 C 93 % 1019,0 hPa 0,0 l/m 7,2 km/h (2 Bft) SO 135 4,2 C 3,6 C
21.11.2012 11:11 5,2 C 93 % 1018,9 hPa 0,0 l/m 6,1 km/h (2 Bft) O-SO 112 4,2 C 3,9 C
21.11.2012 11:16 5,3 C 93 % 1018,8 hPa 0,0 l/m 9,4 km/h (2 Bft) SO 135 4,3 C 3,1 C
21.11.2012 11:21 5,3 C 93 % 1018,8 hPa 0,0 l/m 9,7 km/h (2 Bft) SO 135 4,3 C 3,1 C
21.11.2012 11:26 5,3 C 93 % 1018,6 hPa 0,0 l/m 16,6 km/h (3 Bft) SO 135 4,3 C 1,9 C
21.11.2012 11:31 5,4 C 93 % 1018,6 hPa 0,0 l/m 14,8 km/h (3 Bft) S 180 4,4 C 2,3 C
21.11.2012 11:36 5,5 C 93 % 1018,4 hPa 0,0 l/m 10,4 km/h (2 Bft) SO 135 4,5 C 3,2 C
21.11.2012 11:41 5,5 C 93 % 1018,3 hPa 0,0 l/m 6,5 km/h (2 Bft) S-SO 157 4,5 C 4,1 C
21.11.2012 11:46 5,6 C 93 % 1018,3 hPa 0,0 l/m 12,2 km/h (2 Bft) SO 135 4,6 C 2,9 C
21.11.2012 11:51 5,6 C 93 % 1018,3 hPa 0,0 l/m 5,0 km/h (1 Bft) S-SO 157 4,6 C 4,8 C
21.11.2012 11:56 5,6 C 93 % 1018,2 hPa 0,0 l/m 14,8 km/h (3 Bft) SO 135 4,6 C 2,5 C
21.11.2012 12:01 5,6 C 93 % 1018,2 hPa 0,0 l/m 7,2 km/h (2 Bft) S-SO 157 4,6 C 4,1 C
21.11.2012 12:06 5,8 C 93 % 1018,2 hPa 0,0 l/m 12,6 km/h (3 Bft) SO 135 4,8 C 3,1 C
21.11.2012 12:11 5,9 C 93 % 1018,1 hPa 0,0 l/m 14,8 km/h (3 Bft) SO 135 4,9 C 2,9 C
21.11.2012 12:16 5,9 C 93 % 1018,1 hPa 0,0 l/m 8,3 km/h (2 Bft) SO 135 4,9 C 4,1 C
21.11.2012 12:21 6,1 C 93 % 1018,2 hPa 0,0 l/m 13,0 km/h (3 Bft) S-SO 157 5,1 C 3,4 C
21.11.2012 12:26 6,2 C 93 % 1018,1 hPa 0,0 l/m 8,6 km/h (2 Bft) S 180 5,2 C 4,4 C
21.11.2012 12:31 6,4 C 93 % 1018,2 hPa 0,0 l/m 6,8 km/h (2 Bft) S 180 5,4 C 5,1 C
21.11.2012 12:36 6,4 C 92 % 1018,2 hPa 0,0 l/m 2,2 km/h (1 Bft) S 180 5,2 C 6,4 C
21.11.2012 12:41 6,5 C 92 % 1018,2 hPa 0,0 l/m 8,6 km/h (2 Bft) SO 135 5,3 C 4,8 C
21.11.2012 12:46 6,5 C 92 % 1018,2 hPa 0,0 l/m 9,4 km/h (2 Bft) S-SO 157 5,3 C 4,6 C
21.11.2012 12:51 6,6 C 92 % 1018,1 hPa 0,0 l/m 5,0 km/h (1 Bft) S 180 5,4 C 5,9 C
21.11.2012 12:56 6,6 C 92 % 1018,0 hPa 0,0 l/m 8,6 km/h (2 Bft) SO 135 5,4 C 4,9 C
21.11.2012 13:01 6,7 C 91 % 1017,9 hPa 0,0 l/m 14,4 km/h (3 Bft) SO 135 5,3 C 3,9 C
21.11.2012 13:06 6,8 C 91 % 1017,8 hPa 0,0 l/m 8,6 km/h (2 Bft) S-SO 157 5,4 C 5,1 C
21.11.2012 13:11 6,8 C 91 % 1017,8 hPa 0,0 l/m 0,0 km/h (0 Bft) SO 135 5,4 C 6,8 C
21.11.2012 13:16 6,9 C 91 % 1017,5 hPa 0,0 l/m 8,3 km/h (2 Bft) SO 135 5,5 C 5,3 C
21.11.2012 13:21 6,9 C 90 % 1017,6 hPa 0,0 l/m 12,6 km/h (3 Bft) S-SO 157 5,4 C 4,5 C
21.11.2012 13:26 6,9 C 90 % 1017,6 hPa 0,0 l/m 16,2 km/h (3 Bft) S-SO 157 5,4 C 3,9 C
21.11.2012 13:31 6,9 C 90 % 1017,4 hPa 0,0 l/m 4,3 km/h (1 Bft) S-SO 157 5,4 C 6,9 C
21.11.2012 13:36 7,0 C 90 % 1017,3 hPa 0,0 l/m 13,0 km/h (3 Bft) SO 135 5,5 C 4,5 C
21.11.2012 13:41 7,1 C 90 % 1017,1 hPa 0,0 l/m 7,2 km/h (2 Bft) SO 135 5,6 C 5,8 C
21.11.2012 13:46 7,2 C 89 % 1017,1 hPa 0,0 l/m 6,5 km/h (2 Bft) S-SO 157 5,5 C 6,1 C
21.11.2012 13:51 7,2 C 89 % 1017,0 hPa 0,0 l/m 10,4 km/h (2 Bft) SO 135 5,5 C 5,2 C
21.11.2012 13:56 7,3 C 89 % 1017,1 hPa 0,0 l/m 7,9 km/h (2 Bft) S-SO 157 5,6 C 5,9 C
21.11.2012 14:01 7,4 C 89 % 1016,9 hPa 0,0 l/m 9,0 km/h (2 Bft) SO 135 5,7 C 5,7 C
21.11.2012 14:06 7,4 C 88 % 1016,8 hPa 0,0 l/m 0,0 km/h (0 Bft) SO 135 5,5 C 7,4 C
21.11.2012 14:11 7,4 C 88 % 1016,9 hPa 0,0 l/m 19,4 km/h (3 Bft) S-SO 157 5,5 C 4,2 C
21.11.2012 14:16 7,6 C 88 % 1016,8 hPa 0,0 l/m 10,1 km/h (2 Bft) S-SO 157 5,7 C 5,7 C
21.11.2012 14:21 7,6 C 88 % 1016,7 hPa 0,0 l/m 9,4 km/h (2 Bft) SO 135 5,7 C 5,9 C
21.11.2012 14:26 7,8 C 88 % 1016,6 hPa 0,0 l/m 10,1 km/h (2 Bft) S-SO 157 5,9 C 6,0 C
21.11.2012 14:31 7,8 C 88 % 1016,6 hPa 0,0 l/m 6,1 km/h (2 Bft) S 180 5,9 C 6,9 C
21.11.2012 14:36 7,8 C 88 % 1016,7 hPa 0,0 l/m 8,6 km/h (2 Bft) SO 135 5,9 C 6,3 C
21.11.2012 14:41 7,9 C 87 % 1016,5 hPa 0,0 l/m 3,2 km/h (1 Bft) SO 135 5,9 C 7,9 C
21.11.2012 14:46 7,9 C 87 % 1016,4 hPa 0,0 l/m 15,8 km/h (3 Bft) SO 135 5,9 C 5,2 C
21.11.2012 14:51 7,9 C 87 % 1016,5 hPa 0,0 l/m 9,7 km/h (2 Bft) S-SW 202 5,9 C 6,2 C
21.11.2012 14:56 7,9 C 87 % 1016,5 hPa 0,0 l/m 19,4 km/h (3 Bft) SO 135 5,9 C 4,8 C
21.11.2012 15:01 7,9 C 87 % 1016,4 hPa 0,0 l/m 11,5 km/h (2 Bft) S-SO 157 5,9 C 5,9 C
21.11.2012 15:06 7,9 C 87 % 1016,5 hPa 0,0 l/m 9,4 km/h (2 Bft) SO 135 5,9 C 6,2 C
21.11.2012 15:11 7,8 C 87 % 1016,5 hPa 0,0 l/m 13,0 km/h (3 Bft) SO 135 5,8 C 5,5 C
21.11.2012 15:16 7,8 C 87 % 1016,5 hPa 0,0 l/m 10,8 km/h (2 Bft) S-SO 157 5,8 C 5,9 C
21.11.2012 15:21 7,8 C 87 % 1016,5 hPa 0,0 l/m 5,0 km/h (1 Bft) S 180 5,8 C 7,3 C
21.11.2012 15:26 7,8 C 87 % 1016,5 hPa 0,0 l/m 4,0 km/h (1 Bft) S-SO 157 5,8 C 7,8 C
21.11.2012 15:31 7,6 C 87 % 1016,5 hPa 0,0 l/m 2,9 km/h (1 Bft) SO 135 5,6 C 7,6 C
21.11.2012 15:36 7,6 C 87 % 1016,5 hPa 0,0 l/m 8,3 km/h (2 Bft) SO 135 5,6 C 6,1 C
21.11.2012 15:41 7,4 C 88 % 1016,6 hPa 0,0 l/m 10,4 km/h (2 Bft) SO 135 5,5 C 5,4 C
21.11.2012 15:46 7,2 C 88 % 1016,5 hPa 0,0 l/m 7,9 km/h (2 Bft) O-SO 112 5,3 C 5,7 C
21.11.2012 15:51 7,0 C 88 % 1016,5 hPa 0,0 l/m 8,6 km/h (2 Bft) S-SO 157 5,2 C 5,3 C
21.11.2012 15:56 6,9 C 89 % 1016,7 hPa 0,0 l/m 5,4 km/h (1 Bft) SO 135 5,2 C 6,1 C
21.11.2012 16:01 6,7 C 89 % 1016,7 hPa 0,0 l/m 6,1 km/h (2 Bft) SO 135 5,0 C 5,6 C
21.11.2012 16:06 6,6 C 90 % 1016,9 hPa 0,0 l/m 7,6 km/h (2 Bft) S-SO 157 5,1 C 5,1 C
21.11.2012 16:11 6,4 C 90 % 1016,8 hPa 0,0 l/m 8,6 km/h (2 Bft) S-SO 157 4,9 C 4,6 C
21.11.2012 16:16 6,3 C 90 % 1016,8 hPa 0,0 l/m 7,6 km/h (2 Bft) S-SW 202 4,8 C 4,8 C
21.11.2012 16:21 6,3 C 90 % 1016,8 hPa 0,0 l/m 3,2 km/h (1 Bft) S-SO 157 4,8 C 6,3 C
21.11.2012 16:26 6,1 C 90 % 1016,7 hPa 0,0 l/m 5,0 km/h (1 Bft) O-SO 112 4,6 C 5,3 C
21.11.2012 16:31 6,1 C 91 % 1016,7 hPa 0,0 l/m 5,0 km/h (1 Bft) O-SO 112 4,7 C 5,3 C
21.11.2012 16:36 5,9 C 91 % 1016,8 hPa 0,0 l/m 7,2 km/h (2 Bft) O-SO 112 4,5 C 4,4 C
21.11.2012 16:41 5,9 C 91 % 1016,8 hPa 0,0 l/m 5,4 km/h (1 Bft) SO 135 4,5 C 5,0 C
21.11.2012 16:46 5,8 C 91 % 1016,8 hPa 0,0 l/m 4,0 km/h (1 Bft) O-SO 112 4,4 C 5,8 C
21.11.2012 16:51 5,6 C 91 % 1017,0 hPa 0,0 l/m 4,0 km/h (1 Bft) O-SO 112 4,2 C 5,6 C
21.11.2012 16:56 5,4 C 91 % 1016,8 hPa 0,0 l/m 6,1 km/h (2 Bft) O-SO 112 4,1 C 4,2 C
21.11.2012 17:01 5,3 C 91 % 1016,7 hPa 0,0 l/m 5,0 km/h (1 Bft) O-SO 112 4,0 C 4,4 C
21.11.2012 17:06 5,3 C 91 % 1016,7 hPa 0,0 l/m 7,6 km/h (2 Bft) O-SO 112 4,0 C 3,6 C
21.11.2012 17:11 5,2 C 91 % 1016,8 hPa 0,0 l/m 6,8 km/h (2 Bft) O-SO 112 3,9 C 3,7 C
21.11.2012 17:16 5,1 C 92 % 1016,9 hPa 0,0 l/m 5,8 km/h (2 Bft) O-SO 112 3,9 C 3,9 C
21.11.2012 17:21 5,1 C 92 % 1016,9 hPa 0,0 l/m 4,0 km/h (1 Bft) O-SO 112 3,9 C 5,1 C
21.11.2012 17:26 5,1 C 92 % 1016,8 hPa 0,0 l/m 8,3 km/h (2 Bft) SO 135 3,9 C 3,2 C
21.11.2012 17:31 5,1 C 92 % 1016,8 hPa 0,0 l/m 7,6 km/h (2 Bft) O-SO 112 3,9 C 3,4 C
21.11.2012 17:36 5,0 C 92 % 1016,7 hPa 0,0 l/m 9,4 km/h (2 Bft) O-SO 112 3,8 C 2,8 C
21.11.2012 17:41 4,9 C 92 % 1016,5 hPa 0,0 l/m 7,9 km/h (2 Bft) O-SO 112 3,7 C 3,0 C
21.11.2012 17:46 4,9 C 92 % 1016,5 hPa 0,0 l/m 8,3 km/h (2 Bft) O-SO 112 3,7 C 2,9 C
21.11.2012 17:51 4,9 C 92 % 1016,4 hPa 0,0 l/m 13,7 km/h (3 Bft) SO 135 3,7 C 1,8 C
21.11.2012 17:56 4,9 C 93 % 1016,4 hPa 0,0 l/m 17,3 km/h (3 Bft) S-SO 157 3,9 C 1,3 C
21.11.2012 18:01 4,9 C 93 % 1016,4 hPa 0,0 l/m 11,9 km/h (2 Bft) SO 135 3,9 C 2,2 C
21.11.2012 18:06 4,8 C 93 % 1016,5 hPa 0,0 l/m 5,0 km/h (1 Bft) SO 135 3,8 C 3,9 C
21.11.2012 18:11 4,7 C 93 % 1016,5 hPa 0,0 l/m 3,6 km/h (1 Bft) O-SO 112 3,7 C 4,7 C
21.11.2012 18:16 4,6 C 93 % 1016,5 hPa 0,0 l/m 9,7 km/h (2 Bft) SO 135 3,6 C 2,2 C
21.11.2012 18:21 4,6 C 93 % 1016,6 hPa 0,0 l/m 6,5 km/h (2 Bft) SO 135 3,6 C 3,1 C
21.11.2012 18:26 4,6 C 93 % 1016,6 hPa 0,0 l/m 8,6 km/h (2 Bft) SO 135 3,6 C 2,5 C
21.11.2012 18:31 4,7 C 93 % 1016,6 hPa 0,0 l/m 8,3 km/h (2 Bft) SO 135 3,7 C 2,7 C
21.11.2012 18:36 4,8 C 93 % 1016,7 hPa 0,0 l/m 7,9 km/h (2 Bft) O-SO 112 3,8 C 2,9 C
21.11.2012 18:41 4,8 C 93 % 1016,6 hPa 0,0 l/m 2,5 km/h (1 Bft) SO 135 3,8 C 4,8 C
21.11.2012 18:46 4,8 C 93 % 1016,6 hPa 0,0 l/m 8,3 km/h (2 Bft) S-SO 157 3,8 C 2,8 C
21.11.2012 18:51 4,7 C 93 % 1016,7 hPa 0,0 l/m 5,4 km/h (1 Bft) SO 135 3,7 C 3,6 C
21.11.2012 18:56 4,7 C 93 % 1016,7 hPa 0,0 l/m 5,8 km/h (2 Bft) SO 135 3,7 C 3,4 C
21.11.2012 19:01 4,6 C 93 % 1016,6 hPa 0,0 l/m 3,2 km/h (1 Bft) O-SO 112 3,6 C 4,6 C
21.11.2012 19:06 4,5 C 93 % 1016,7 hPa 0,0 l/m 4,0 km/h (1 Bft) SO 135 3,5 C 4,5 C
21.11.2012 19:11 4,4 C 93 % 1016,7 hPa 0,0 l/m 4,3 km/h (1 Bft) SO 135 3,4 C 4,4 C
21.11.2012 19:16 4,4 C 94 % 1016,6 hPa 0,0 l/m 8,6 km/h (2 Bft) O-SO 112 3,5 C 2,3 C
21.11.2012 19:21 4,4 C 94 % 1016,6 hPa 0,0 l/m 4,3 km/h (1 Bft) O-SO 112 3,5 C 4,4 C
21.11.2012 19:26 4,3 C 94 % 1016,7 hPa 0,0 l/m 3,6 km/h (1 Bft) SO 135 3,4 C 4,3 C
21.11.2012 19:31 4,2 C 94 % 1016,6 hPa 0,0 l/m 2,2 km/h (1 Bft) O-SO 112 3,3 C 4,2 C
21.11.2012 19:36 4,2 C 94 % 1016,6 hPa 0,0 l/m 5,0 km/h (1 Bft) SO 135 3,3 C 3,2 C
21.11.2012 19:41 4,2 C 94 % 1016,7 hPa 0,0 l/m 3,6 km/h (1 Bft) S-SO 157 3,3 C 4,2 C
21.11.2012 19:46 4,1 C 94 % 1016,7 hPa 0,0 l/m 6,5 km/h (2 Bft) S-SO 157 3,2 C 2,5 C
21.11.2012 19:51 4,1 C 94 % 1016,7 hPa 0,0 l/m 2,9 km/h (1 Bft) SO 135 3,2 C 4,1 C
21.11.2012 19:56 4,1 C 94 % 1016,6 hPa 0,0 l/m 1,4 km/h (1 Bft) SO 135 3,2 C 4,1 C
21.11.2012 20:01 4,1 C 94 % 1016,6 hPa 0,0 l/m 3,6 km/h (1 Bft) SO 135 3,2 C 4,1 C
21.11.2012 20:06 4,1 C 94 % 1016,6 hPa 0,0 l/m 4,7 km/h (1 Bft) S-SO 157 3,2 C 3,2 C
21.11.2012 20:11 4,0 C 94 % 1016,7 hPa 0,0 l/m 7,2 km/h (2 Bft) SO 135 3,1 C 2,2 C
21.11.2012 20:16 4,1 C 94 % 1016,8 hPa 0,0 l/m 5,4 km/h (1 Bft) SO 135 3,2 C 2,9 C
21.11.2012 20:21 4,0 C 94 % 1016,8 hPa 0,0 l/m 2,9 km/h (1 Bft) SO 135 3,1 C 4,0 C
21.11.2012 20:26 3,9 C 94 % 1016,8 hPa 0,0 l/m 6,1 km/h (2 Bft) SO 135 3,0 C 2,4 C
21.11.2012 20:31 3,9 C 93 % 1016,8 hPa 0,0 l/m 6,1 km/h (2 Bft) SO 135 2,9 C 2,4 C
21.11.2012 20:36 3,9 C 93 % 1016,6 hPa 0,0 l/m 4,0 km/h (1 Bft) SO 135 2,9 C 3,9 C
21.11.2012 20:41 3,9 C 93 % 1016,6 hPa 0,0 l/m 7,2 km/h (2 Bft) S-SO 157 2,9 C 2,1 C
21.11.2012 20:46 3,9 C 93 % 1016,7 hPa 0,0 l/m 4,0 km/h (1 Bft) O-SO 112 2,9 C 3,9 C
21.11.2012 20:51 3,8 C 93 % 1016,7 hPa 0,0 l/m 7,6 km/h (2 Bft) SO 135 2,8 C 1,8 C
21.11.2012 20:56 3,8 C 94 % 1016,8 hPa 0,0 l/m 0,0 km/h (0 Bft) O-SO 112 2,9 C 3,8 C
21.11.2012 21:01 3,8 C 94 % 1016,7 hPa 0,0 l/m 6,1 km/h (2 Bft) O-SO 112 2,9 C 2,3 C
21.11.2012 21:06 3,7 C 94 % 1016,8 hPa 0,0 l/m 6,1 km/h (2 Bft) SO 135 2,8 C 2,2 C
21.11.2012 21:11 3,6 C 94 % 1016,9 hPa 0,0 l/m 2,2 km/h (1 Bft) SO 135 2,7 C 3,6 C
21.11.2012 21:16 3,6 C 94 % 1016,8 hPa 0,0 l/m 3,6 km/h (1 Bft) SO 135 2,7 C 3,6 C
21.11.2012 21:21 3,5 C 94 % 1017,0 hPa 0,0 l/m 2,2 km/h (1 Bft) O-SO 112 2,6 C 3,5 C
21.11.2012 21:26 3,5 C 94 % 1017,1 hPa 0,0 l/m 0,0 km/h (0 Bft) O-SO 112 2,6 C 3,5 C
21.11.2012 21:31 3,5 C 94 % 1017,1 hPa 0,0 l/m 6,8 km/h (2 Bft) S-SO 157 2,6 C 1,7 C
21.11.2012 21:36 3,5 C 94 % 1017,2 hPa 0,0 l/m 5,0 km/h (1 Bft) SO 135 2,6 C 2,4 C
21.11.2012 21:41 3,4 C 94 % 1017,1 hPa 0,0 l/m 5,8 km/h (2 Bft) O-SO 112 2,5 C 2,0 C
21.11.2012 21:46 3,4 C 94 % 1017,3 hPa 0,0 l/m 4,0 km/h (1 Bft) SO 135 2,5 C 3,4 C
21.11.2012 21:51 3,4 C 94 % 1017,3 hPa 0,0 l/m 2,9 km/h (1 Bft) SO 135 2,5 C 3,4 C
21.11.2012 21:56 3,4 C 94 % 1017,4 hPa 0,0 l/m 2,5 km/h (1 Bft) S-SO 157 2,5 C 3,4 C
21.11.2012 22:01 3,4 C 94 % 1017,4 hPa 0,0 l/m 0,0 km/h (0 Bft) SO 135 2,5 C 3,4 C
21.11.2012 22:06 3,4 C 94 % 1017,2 hPa 0,0 l/m 2,2 km/h (1 Bft) O 90 2,5 C 3,4 C
21.11.2012 22:11 3,4 C 94 % 1017,4 hPa 0,0 l/m 4,0 km/h (1 Bft) SO 135 2,5 C 3,4 C
21.11.2012 22:16 3,4 C 94 % 1017,3 hPa 0,0 l/m 2,5 km/h (1 Bft) SO 135 2,5 C 3,4 C
21.11.2012 22:21 3,4 C 94 % 1017,4 hPa 0,0 l/m 3,2 km/h (1 Bft) SO 135 2,5 C 3,4 C
21.11.2012 22:26 3,4 C 94 % 1017,5 hPa 0,0 l/m 0,0 km/h (0 Bft) SO 135 2,5 C 3,4 C
21.11.2012 22:31 3,3 C 94 % 1017,5 hPa 0,0 l/m 3,6 km/h (1 Bft) SO 135 2,4 C 3,3 C
21.11.2012 22:36 3,4 C 94 % 1017,5 hPa 0,0 l/m 3,6 km/h (1 Bft) O-SO 112 2,5 C 3,4 C
21.11.2012 22:41 3,3 C 94 % 1017,6 hPa 0,0 l/m 4,0 km/h (1 Bft) S-SO 157 2,4 C 3,3 C
21.11.2012 22:46 3,3 C 94 % 1017,6 hPa 0,0 l/m 6,5 km/h (2 Bft) SO 135 2,4 C 1,6 C
21.11.2012 22:51 3,3 C 94 % 1017,5 hPa 0,0 l/m 2,2 km/h (1 Bft) O-SO 112 2,4 C 3,3 C
21.11.2012 22:56 3,3 C 94 % 1017,5 hPa 0,0 l/m 3,6 km/h (1 Bft) O 90 2,4 C 3,3 C
21.11.2012 23:01 3,3 C 94 % 1017,5 hPa 0,0 l/m 0,0 km/h (0 Bft) O-SO 112 2,4 C 3,3 C
21.11.2012 23:06 3,3 C 94 % 1017,8 hPa 0,0 l/m 0,0 km/h (0 Bft) SO 135 2,4 C 3,3 C
21.11.2012 23:11 3,1 C 94 % 1017,6 hPa 0,0 l/m 1,4 km/h (1 Bft) SO 135 2,2 C 3,1 C
21.11.2012 23:16 3,0 C 94 % 1017,6 hPa 0,0 l/m 0,0 km/h (0 Bft) O 90 2,1 C 3,0 C
21.11.2012 23:21 2,9 C 94 % 1017,6 hPa 0,0 l/m 1,4 km/h (1 Bft) O-SO 112 2,0 C 2,9 C
21.11.2012 23:26 2,9 C 94 % 1017,8 hPa 0,0 l/m 1,8 km/h (1 Bft) SO 135 2,0 C 2,9 C
21.11.2012 23:31 2,8 C 94 % 1017,8 hPa 0,0 l/m 2,2 km/h (1 Bft) SO 135 1,9 C 2,8 C
21.11.2012 23:36 2,7 C 94 % 1017,9 hPa 0,0 l/m 0,0 km/h (0 Bft) SO 135 1,8 C 2,7 C
21.11.2012 23:41 2,6 C 94 % 1018,0 hPa 0,0 l/m 0,0 km/h (0 Bft) SO 135 1,7 C 2,6 C
21.11.2012 23:46 2,4 C 94 % 1017,9 hPa 0,0 l/m 0,0 km/h (0 Bft) SO 135 1,5 C 2,4 C
21.11.2012 23:51 2,4 C 94 % 1018,0 hPa 0,0 l/m 0,0 km/h (0 Bft) SO 135 1,5 C 2,4 C
21.11.2012 23:56 2,4 C 94 % 1018,0 hPa 0,0 l/m 1,8 km/h (1 Bft) O-SO 112 1,5 C 2,4 C
_ Min-Zeit 23:46 14:41 14:46 - 01:16 - - 23:46 17:56
Minimum _ 2,4 C 87 % 1016,4 hPa - 0,0 km/h (0 Bft) - - 1,5 C 1,3 C
_ Max-Zeit 14:41 00:01 00:01 00:01 14:11 - - 14:26 14:41
Maximum _ 7,9 C 94 % 1021,4 hPa 0,0 l/m 19,4 km/h
S-SO (3 Bft)
- - 5,9 C 7,9 C
Durchschnitt _ 5,5 C 93 % 1018,4 hPa #0,0 l/m 6,4 km/h (2 Bft) SO - 4,4 C 4,4 C
(c) by David Heller